Time;durP1;ratioP1;P1;durP2;ratioP2;P2;SDS_P1;SDS_P2;PMS_P1;PMS_P2;Temp;Humidity;BMP_temperature;BMP_pressure;BME280_temperature;BME280_humidity;BME280_pressure;Samples;Min_cycle;Max_cycle;Signal;HPM_P1;HPM_P2
2023/07/03 00:00:37;;;;;;;0.50;0.40;;;16.50;99.90;;;;;;4959792;28;20454;-83
2023/07/03 00:03:04;;;;;;;0.60;0.40;;;16.40;99.90;;;;;;4967613;28;20486;-82
2023/07/03 00:05:31;;;;;;;1.40;0.97;;;16.40;99.90;;;;;;4967462;28;20457;-82
2023/07/03 00:07:58;;;;;;;2.73;2.50;;;16.30;99.90;;;;;;4975885;28;20452;-83
2023/07/03 00:10:25;;;;;;;0.50;0.40;;;16.20;99.90;;;;;;4975308;28;20872;-83
2023/07/03 00:12:51;;;;;;;0.50;0.40;;;16.10;99.90;;;;;;4975761;28;20484;-82
2023/07/03 00:15:18;;;;;;;0.50;0.40;;;16.00;99.90;;;;;;4966424;28;20464;-84
2023/07/03 00:17:47;;;;;;;1.90;1.07;;;16.00;99.90;;;;;;4964215;28;20441;-82
2023/07/03 00:20:14;;;;;;;0.50;0.40;;;15.90;99.90;;;;;;4964200;28;20449;-82
2023/07/03 00:22:41;;;;;;;0.50;0.40;;;15.90;99.90;;;;;;4967620;28;20440;-82
2023/07/03 00:25:09;;;;;;;0.50;0.40;;;15.80;99.90;;;;;;4967322;28;20844;-83
2023/07/03 00:27:36;;;;;;;0.50;0.40;;;15.80;99.90;;;;;;4963727;28;20446;-82
2023/07/03 00:30:03;;;;;;;0.90;0.90;;;15.70;99.90;;;;;;4963871;28;21059;-83
2023/07/03 00:32:30;;;;;;;52.33;2.87;;;15.70;99.90;;;;;;4965643;28;20798;-82
2023/07/03 00:34:58;;;;;;;0.50;0.40;;;15.70;99.90;;;;;;4967238;28;20480;-83
2023/07/03 00:37:26;;;;;;;0.73;0.73;;;15.60;99.90;;;;;;4965428;28;20445;-83
2023/07/03 00:39:52;;;;;;;0.50;0.40;;;15.60;99.90;;;;;;4955528;28;20450;-82
2023/07/03 00:42:19;;;;;;;0.60;0.60;;;15.50;99.90;;;;;;4955277;28;20453;-83
2023/07/03 00:44:46;;;;;;;0.60;0.53;;;15.50;99.90;;;;;;4955572;28;20477;-83
2023/07/03 00:47:13;;;;;;;0.50;0.40;;;15.40;99.90;;;;;;4955693;28;20449;-82
2023/07/03 00:49:39;;;;;;;0.50;0.40;;;15.30;99.90;;;;;;4963142;28;20462;-83
2023/07/03 00:52:11;;;;;;;2.50;1.37;;;15.30;99.90;;;;;;4963378;28;20818;-81
2023/07/03 00:54:38;;;;;;;0.60;0.57;;;15.20;99.90;;;;;;4965871;28;20446;-82
2023/07/03 00:57:06;;;;;;;0.50;0.40;;;15.20;99.90;;;;;;4966508;28;20448;-82
2023/07/03 00:59:34;;;;;;;0.50;0.40;;;15.10;99.90;;;;;;4965892;28;20452;-82
2023/07/03 01:02:07;;;;;;;0.60;0.60;;;15.10;99.90;;;;;;4966773;28;20456;-83
2023/07/03 01:04:41;;;;;;;0.50;0.40;;;15.10;99.90;;;;;;4963702;28;20476;-83
2023/07/03 01:07:16;;;;;;;0.90;0.90;;;15.00;99.90;;;;;;4963278;28;20946;-83
2023/07/03 01:09:46;;;;;;;0.53;0.43;;;14.90;99.90;;;;;;4962757;28;20475;-82
2023/07/03 01:12:14;;;;;;;0.50;0.40;;;14.90;99.90;;;;;;4962638;28;20449;-82
2023/07/03 01:14:42;;;;;;;0.50;0.40;;;14.90;99.90;;;;;;4962782;28;20444;-83
2023/07/03 01:17:11;;;;;;;0.50;0.40;;;14.80;99.90;;;;;;4963113;28;20450;-82
2023/07/03 01:19:39;;;;;;;0.50;0.40;;;14.80;99.90;;;;;;4965557;28;20814;-83
2023/07/03 01:22:14;;;;;;;1.93;0.70;;;14.80;99.90;;;;;;4981001;28;20443;-84
2023/07/03 01:24:45;;;;;;;0.50;0.40;;;14.80;99.90;;;;;;4971396;28;20477;-85
2023/07/03 01:27:14;;;;;;;0.80;0.77;;;14.70;99.90;;;;;;4971219;28;20938;-83
2023/07/03 01:29:42;;;;;;;15.60;1.47;;;14.70;99.90;;;;;;4978433;28;20445;-83
2023/07/03 01:32:12;;;;;;;1.13;0.90;;;14.70;99.90;;;;;;4977425;28;20448;-83
2023/07/03 01:34:45;;;;;;;1.93;0.70;;;14.70;99.90;;;;;;4972615;28;20441;-84
2023/07/03 01:37:12;;;;;;;1.00;0.77;;;14.70;99.90;;;;;;4969007;28;20891;-83
2023/07/03 01:39:40;;;;;;;0.50;0.40;;;14.70;99.90;;;;;;4965989;28;20460;-82
2023/07/03 01:42:08;;;;;;;1.37;0.77;;;14.70;99.90;;;;;;4974480;28;20449;-82
2023/07/03 01:44:35;;;;;;;0.50;0.40;;;14.70;99.90;;;;;;4973480;28;20531;-83
2023/07/03 01:47:07;;;;;;;0.50;0.40;;;14.60;99.90;;;;;;4974365;28;20466;-84
2023/07/03 01:49:34;;;;;;;0.60;0.50;;;14.60;99.90;;;;;;4973464;28;20455;-82
2023/07/03 01:52:11;;;;;;;1.17;1.07;;;14.60;99.90;;;;;;4973675;28;20451;-83
2023/07/03 01:54:44;;;;;;;0.50;0.50;;;14.70;99.90;;;;;;4973779;28;20444;-81
2023/07/03 01:57:18;;;;;;;1.23;1.13;;;14.70;99.90;;;;;;4967280;28;20459;-82
2023/07/03 01:59:47;;;;;;;0.50;0.40;;;14.70;99.90;;;;;;4965232;28;20453;-81
2023/07/03 02:02:17;;;;;;;0.70;0.70;;;14.70;99.90;;;;;;4965891;28;20542;-83
2023/07/03 02:04:51;;;;;;;1.27;0.90;;;14.80;99.90;;;;;;4962480;28;20846;-82
2023/07/03 02:07:19;;;;;;;0.50;0.40;;;14.80;99.90;;;;;;4962789;28;20878;-83
2023/07/03 02:09:46;;;;;;;1.33;1.17;;;14.80;99.90;;;;;;4977478;28;20502;-81
2023/07/03 02:12:14;;;;;;;0.50;0.40;;;14.80;99.90;;;;;;4981085;28;20458;-84
2023/07/03 02:14:41;;;;;;;0.60;0.60;;;14.70;99.90;;;;;;4969354;28;20452;-83
2023/07/03 02:17:08;;;;;;;0.70;0.70;;;14.70;99.90;;;;;;4968783;28;20481;-84
2023/07/03 02:19:35;;;;;;;0.50;0.40;;;14.60;99.90;;;;;;4970445;28;20455;-83
2023/07/03 02:22:03;;;;;;;0.60;0.50;;;14.60;99.90;;;;;;4972139;28;20452;-83
2023/07/03 02:24:30;;;;;;;1.00;0.63;;;14.60;99.90;;;;;;4969113;28;20480;-82
2023/07/03 02:26:56;;;;;;;0.50;0.40;;;14.60;99.90;;;;;;4962051;28;20475;-82
2023/07/03 02:29:25;;;;;;;0.87;0.53;;;14.50;99.90;;;;;;4961683;28;20455;-83
2023/07/03 02:31:51;;;;;;;0.50;0.40;;;14.60;99.90;;;;;;4961975;28;20446;-83
2023/07/03 02:34:20;;;;;;;0.50;0.40;;;14.60;99.90;;;;;;4969150;28;20448;-83
2023/07/03 02:36:48;;;;;;;0.50;0.40;;;14.60;99.90;;;;;;4972801;28;20469;-83
2023/07/03 02:39:15;;;;;;;1.60;1.17;;;14.60;99.90;;;;;;4972813;28;20457;-83
2023/07/03 02:41:42;;;;;;;0.50;0.37;;;14.60;99.90;;;;;;4973284;28;20443;-82
2023/07/03 02:44:09;;;;;;;0.70;0.70;;;14.60;99.90;;;;;;4973308;28;20504;-83
2023/07/03 02:46:37;;;;;;;7.83;0.70;;;14.60;99.90;;;;;;4972733;28;21001;-82
2023/07/03 02:49:04;;;;;;;0.50;0.40;;;14.50;99.90;;;;;;4973056;28;20544;-82
2023/07/03 02:51:31;;;;;;;0.50;0.40;;;14.60;99.90;;;;;;4973078;28;20445;-82
2023/07/03 02:53:58;;;;;;;0.50;0.40;;;14.50;99.90;;;;;;4973040;28;20445;-84
2023/07/03 02:56:24;;;;;;;0.70;0.70;;;14.50;99.90;;;;;;4965098;28;20486;-83
2023/07/03 02:58:51;;;;;;;2.93;1.33;;;14.50;99.90;;;;;;4961542;28;20458;-82
2023/07/03 03:01:18;;;;;;;1.37;0.70;;;14.50;99.90;;;;;;4962282;28;20448;-83
2023/07/03 03:03:46;;;;;;;0.70;0.67;;;14.40;99.90;;;;;;4961507;28;20482;-83
2023/07/03 03:06:13;;;;;;;0.50;0.40;;;14.40;99.90;;;;;;4961576;28;20485;-82
2023/07/03 03:08:40;;;;;;;6.80;2.00;;;14.30;99.90;;;;;;4962928;28;20472;-83
2023/07/03 03:11:07;;;;;;;1.13;0.80;;;14.30;99.90;;;;;;4965247;28;20445;-83
2023/07/03 03:13:34;;;;;;;0.50;0.40;;;14.30;99.90;;;;;;4964735;28;20835;-83
2023/07/03 03:16:01;;;;;;;2.30;2.07;;;14.30;99.90;;;;;;4972654;28;20936;-83
2023/07/03 03:18:27;;;;;;;0.50;0.50;;;14.30;99.90;;;;;;4972576;28;20449;-82
2023/07/03 03:20:56;;;;;;;0.50;0.40;;;14.30;99.90;;;;;;4961370;28;20451;-83
2023/07/03 03:23:22;;;;;;;0.50;0.50;;;14.30;99.90;;;;;;4961320;28;20456;-83
2023/07/03 03:25:49;;;;;;;1.07;1.07;;;14.20;99.90;;;;;;4961328;28;20465;-82
2023/07/03 03:28:16;;;;;;;1.17;1.07;;;14.20;99.90;;;;;;4961310;28;20476;-82
2023/07/03 03:30:43;;;;;;;0.50;0.40;;;14.20;99.90;;;;;;4962735;28;20453;-82
2023/07/03 03:33:09;;;;;;;0.50;0.40;;;14.20;99.90;;;;;;4972547;28;20450;-82
2023/07/03 03:35:36;;;;;;;0.50;0.40;;;14.20;99.90;;;;;;4971964;28;21018;-83
2023/07/03 03:38:04;;;;;;;1.47;1.10;;;14.20;99.90;;;;;;4972820;28;20440;-82
2023/07/03 03:40:31;;;;;;;0.60;0.60;;;14.20;99.90;;;;;;4972264;28;20441;-81
2023/07/03 03:42:58;;;;;;;0.63;0.63;;;14.20;99.90;;;;;;4964469;28;20464;-83
2023/07/03 03:45:25;;;;;;;0.67;0.60;;;14.20;99.90;;;;;;4972603;28;20481;-82
2023/07/03 03:47:52;;;;;;;0.50;0.40;;;14.20;99.90;;;;;;4972650;28;20446;-82
2023/07/03 03:50:19;;;;;;;2.70;0.73;;;14.20;99.90;;;;;;4973762;28;20535;-83
2023/07/03 03:52:46;;;;;;;0.50;0.40;;;14.20;99.90;;;;;;4972199;28;20833;-82
2023/07/03 03:55:14;;;;;;;0.80;0.80;;;14.20;99.90;;;;;;4972348;28;20482;-83
2023/07/03 03:57:41;;;;;;;1.30;1.20;;;14.10;99.90;;;;;;4970755;28;20818;-82
2023/07/03 04:00:15;;;;;;;0.50;0.40;;;14.10;99.90;;;;;;4960527;28;20495;-80
2023/07/03 04:02:42;;;;;;;1.70;0.50;;;14.10;99.90;;;;;;4952977;28;20794;-80
2023/07/03 04:05:09;;;;;;;0.50;0.40;;;14.00;99.90;;;;;;4962103;28;20485;-82
2023/07/03 04:07:35;;;;;;;0.50;0.50;;;14.10;99.90;;;;;;4964582;28;20454;-83
2023/07/03 04:10:04;;;;;;;0.93;0.83;;;14.10;99.90;;;;;;4975882;28;20451;-83
2023/07/03 04:12:32;;;;;;;1.13;0.93;;;14.10;99.90;;;;;;4976743;28;20511;-82
2023/07/03 04:14:58;;;;;;;0.50;0.40;;;14.10;99.90;;;;;;4975951;28;20467;-82
2023/07/03 04:17:25;;;;;;;0.60;0.60;;;14.10;99.90;;;;;;4976085;28;20451;-83
2023/07/03 04:19:52;;;;;;;0.90;0.60;;;14.20;99.90;;;;;;4975578;28;20443;-82
2023/07/03 04:22:19;;;;;;;1.13;0.70;;;14.20;99.90;;;;;;4975732;28;20448;-83
2023/07/03 04:24:45;;;;;;;0.50;0.40;;;14.20;99.90;;;;;;4975239;28;20979;-80
2023/07/03 04:27:14;;;;;;;0.60;0.50;;;14.30;99.90;;;;;;4975568;28;20569;-82
2023/07/03 04:29:42;;;;;;;0.60;0.50;;;14.30;99.90;;;;;;4974299;28;20444;-82
2023/07/03 04:32:09;;;;;;;7.50;0.80;;;14.40;99.90;;;;;;4964487;28;20545;-83
2023/07/03 04:34:35;;;;;;;0.50;0.40;;;14.40;99.90;;;;;;4964506;28;20434;-82
2023/07/03 04:37:03;;;;;;;3.80;1.20;;;14.50;99.90;;;;;;4967305;28;20461;-80
2023/07/03 04:39:30;;;;;;;0.50;0.40;;;14.50;99.90;;;;;;4967178;28;20448;-83
2023/07/03 04:42:00;;;;;;;0.63;0.50;;;14.50;99.90;;;;;;4956471;28;20437;-81
2023/07/03 04:44:26;;;;;;;1.80;0.60;;;14.60;99.90;;;;;;4962630;28;20478;-82
2023/07/03 04:46:55;;;;;;;0.63;0.63;;;14.70;99.90;;;;;;4975638;28;21087;-82
2023/07/03 04:49:25;;;;;;;0.50;0.40;;;14.70;99.90;;;;;;4975372;28;20492;-82
2023/07/03 04:51:52;;;;;;;0.67;0.60;;;14.80;99.90;;;;;;4975348;28;20446;-82
2023/07/03 04:54:20;;;;;;;2.87;1.03;;;14.80;99.90;;;;;;4975121;28;20500;-82
2023/07/03 04:56:48;;;;;;;1.00;0.90;;;14.80;99.90;;;;;;4965666;28;20471;-81
2023/07/03 04:59:15;;;;;;;1.73;0.50;;;14.80;99.90;;;;;;4968149;28;20453;-82
2023/07/03 05:01:43;;;;;;;0.77;0.70;;;14.80;99.90;;;;;;4974992;28;20440;-82
2023/07/03 05:04:11;;;;;;;0.50;0.40;;;14.80;99.90;;;;;;4975119;28;20455;-82
2023/07/03 05:06:39;;;;;;;2.73;1.07;;;14.80;99.90;;;;;;4975410;28;20461;-82
2023/07/03 05:09:08;;;;;;;1.70;1.17;;;14.90;99.90;;;;;;4966643;28;20555;-82
2023/07/03 05:11:35;;;;;;;0.80;0.50;;;15.00;99.90;;;;;;4974783;28;20478;-82
2023/07/03 05:14:02;;;;;;;0.70;0.57;;;15.10;99.90;;;;;;4955781;28;20506;-82
2023/07/03 05:16:29;;;;;;;2.50;2.40;;;15.10;99.90;;;;;;4956392;28;20462;-82
2023/07/03 05:18:56;;;;;;;0.50;0.37;;;15.20;99.90;;;;;;4963940;28;20451;-83
2023/07/03 05:21:24;;;;;;;0.50;0.40;;;15.20;99.90;;;;;;4977125;28;20439;-82
2023/07/03 05:23:50;;;;;;;20.53;10.57;;;15.20;99.90;;;;;;4973240;28;20429;-84
2023/07/03 05:26:17;;;;;;;0.50;0.40;;;15.30;99.90;;;;;;4968347;28;20848;-84
2023/07/03 05:28:44;;;;;;;0.73;0.73;;;15.20;99.90;;;;;;4960609;28;20498;-83
2023/07/03 05:31:11;;;;;;;0.90;0.73;;;15.30;99.90;;;;;;4989916;28;20472;-84
2023/07/03 05:33:37;;;;;;;0.50;0.40;;;15.30;99.90;;;;;;4980824;28;20524;-83
2023/07/03 05:36:05;;;;;;;0.50;0.40;;;15.40;99.90;;;;;;4970044;28;20464;-83
2023/07/03 05:38:34;;;;;;;8.33;3.23;;;15.40;99.90;;;;;;4959786;28;20442;-83
2023/07/03 05:41:01;;;;;;;0.53;0.43;;;15.50;99.90;;;;;;4959588;28;20442;-84
2023/07/03 05:43:29;;;;;;;5.60;2.47;;;15.50;99.90;;;;;;4957815;28;20464;-83
2023/07/03 05:45:56;;;;;;;0.50;0.40;;;15.60;99.90;;;;;;4956806;28;20979;-82
2023/07/03 05:48:25;;;;;;;0.80;0.73;;;15.60;99.90;;;;;;4955507;28;20797;-84
2023/07/03 05:50:51;;;;;;;0.50;0.40;;;15.70;99.90;;;;;;4958783;28;20439;-83
2023/07/03 05:53:18;;;;;;;0.60;0.50;;;15.70;99.90;;;;;;4960647;28;20441;-82
2023/07/03 05:55:55;;;;;;;0.50;0.40;;;15.70;99.90;;;;;;4959338;28;20461;-83
2023/07/03 05:58:22;;;;;;;0.50;0.30;;;15.80;99.90;;;;;;4959601;28;20944;-83
2023/07/03 06:00:49;;;;;;;0.50;0.40;;;15.80;99.90;;;;;;4959311;28;20428;-81
2023/07/03 06:03:16;;;;;;;0.57;0.50;;;15.80;99.90;;;;;;4962216;28;20509;-83
2023/07/03 06:05:43;;;;;;;0.60;0.60;;;15.90;99.90;;;;;;4959539;28;20487;-83
2023/07/03 06:08:10;;;;;;;1.17;1.07;;;15.80;99.90;;;;;;4957690;28;20437;-81
2023/07/03 06:10:37;;;;;;;1.00;0.90;;;15.80;99.90;;;;;;4960049;28;20949;-84
2023/07/03 06:13:06;;;;;;;0.80;0.80;;;15.80;99.90;;;;;;4959733;28;20473;-83
2023/07/03 06:15:34;;;;;;;1.10;1.00;;;15.90;99.90;;;;;;4958840;28;20924;-83
2023/07/03 06:18:02;;;;;;;0.70;0.47;;;15.80;99.90;;;;;;4959129;28;20443;-84
2023/07/03 06:20:29;;;;;;;3.10;1.57;;;15.90;99.90;;;;;;4958499;28;20526;-83
2023/07/03 06:22:56;;;;;;;2.57;2.47;;;16.10;99.90;;;;;;4959037;28;20506;-83
2023/07/03 06:25:23;;;;;;;1.03;1.00;;;16.20;99.90;;;;;;4959022;28;20534;-84
2023/07/03 06:27:50;;;;;;;0.57;0.57;;;16.20;99.90;;;;;;4959139;28;20894;-83
2023/07/03 06:30:18;;;;;;;1.20;0.50;;;16.30;99.90;;;;;;4970528;28;21089;-83
2023/07/03 06:32:45;;;;;;;0.60;0.50;;;16.40;99.90;;;;;;4977156;28;20493;-82
2023/07/03 06:35:12;;;;;;;6.27;1.03;;;16.50;99.90;;;;;;4965355;28;20970;-85
2023/07/03 06:37:39;;;;;;;2.90;2.60;;;16.50;99.90;;;;;;4958547;28;20923;-83
2023/07/03 06:40:09;;;;;;;0.50;0.43;;;16.60;99.90;;;;;;4956007;28;20929;-85
2023/07/03 06:42:36;;;;;;;0.93;0.93;;;16.70;99.90;;;;;;4957951;28;20469;-84
2023/07/03 06:45:04;;;;;;;0.50;0.40;;;16.80;99.90;;;;;;4957152;28;20514;-84
2023/07/03 06:47:32;;;;;;;0.50;0.40;;;17.20;99.90;;;;;;4957533;28;20441;-85
2023/07/03 06:49:59;;;;;;;0.50;0.40;;;17.70;99.90;;;;;;4958225;28;20968;-85
2023/07/03 06:52:26;;;;;;;0.50;0.50;;;17.70;99.90;;;;;;4962357;28;20433;-85
2023/07/03 06:54:53;;;;;;;2.60;1.37;;;17.50;99.90;;;;;;4956720;28;20489;-84
2023/07/03 06:57:20;;;;;;;0.50;0.50;;;17.30;99.90;;;;;;4957525;28;20961;-84
2023/07/03 06:59:47;;;;;;;0.70;0.53;;;17.20;99.90;;;;;;4957094;28;20486;-82
2023/07/03 07:02:14;;;;;;;3.90;1.07;;;17.10;99.90;;;;;;4957638;28;20473;-83
2023/07/03 07:04:44;;;;;;;1.27;0.70;;;17.00;99.90;;;;;;4972250;28;20464;-85
2023/07/03 07:07:10;;;;;;;0.60;0.60;;;16.80;99.90;;;;;;4977311;28;20450;-84
2023/07/03 07:09:38;;;;;;;2.10;0.70;;;16.80;99.90;;;;;;4976985;28;20511;-85
2023/07/03 07:12:06;;;;;;;0.50;0.40;;;16.80;99.90;;;;;;4977016;28;20471;-84
2023/07/03 07:14:33;;;;;;;0.87;0.57;;;16.90;99.90;;;;;;4976684;28;20918;-85
2023/07/03 07:17:00;;;;;;;0.50;0.40;;;17.20;99.90;;;;;;4975918;28;20455;-84
2023/07/03 07:19:27;;;;;;;0.60;0.50;;;17.50;99.90;;;;;;4975976;28;21051;-83
2023/07/03 07:21:55;;;;;;;0.93;0.67;;;17.50;99.90;;;;;;4967678;28;20486;-84
2023/07/03 07:24:27;;;;;;;0.60;0.50;;;17.40;99.90;;;;;;4958168;28;20453;-84
2023/07/03 07:26:54;;;;;;;0.50;0.33;;;17.40;99.90;;;;;;4956094;28;21003;-85
2023/07/03 07:29:22;;;;;;;2.27;2.17;;;17.70;99.90;;;;;;4954752;28;21009;-83
2023/07/03 07:31:49;;;;;;;1.73;0.87;;;17.90;99.90;;;;;;4955808;28;20439;-85
2023/07/03 07:34:15;;;;;;;1.33;1.07;;;17.70;99.90;;;;;;4968160;28;20434;-84
2023/07/03 07:36:43;;;;;;;1.90;1.47;;;18.00;99.90;;;;;;4973992;28;20463;-81
2023/07/03 07:39:11;;;;;;;2.47;1.53;;;18.70;99.90;;;;;;4973583;28;20495;-83
2023/07/03 07:41:38;;;;;;;0.50;0.30;;;19.20;99.90;;;;;;4962988;28;20473;-82
2023/07/03 07:44:06;;;;;;;0.50;0.50;;;19.40;99.90;;;;;;4959867;28;20534;-83
2023/07/03 07:46:35;;;;;;;0.93;0.93;;;20.00;99.90;;;;;;4972463;28;20499;-82
2023/07/03 07:49:02;;;;;;;0.70;0.63;;;20.00;99.90;;;;;;4977870;28;20474;-82
2023/07/03 07:51:30;;;;;;;2.50;1.10;;;20.20;99.90;;;;;;4977584;28;20515;-82
2023/07/03 07:53:58;;;;;;;0.50;0.40;;;19.70;99.90;;;;;;4969031;28;20446;-83
2023/07/03 07:56:27;;;;;;;0.50;0.30;;;19.90;99.90;;;;;;4959423;28;20460;-81
2023/07/03 07:58:54;;;;;;;0.70;0.70;;;20.20;99.90;;;;;;4956854;28;20434;-83
2023/07/03 08:01:21;;;;;;;0.50;0.40;;;20.50;99.90;;;;;;4959557;28;20449;-84
2023/07/03 08:03:49;;;;;;;0.50;0.30;;;19.80;99.90;;;;;;4959876;28;20438;-83
2023/07/03 08:06:17;;;;;;;0.50;0.40;;;19.10;99.90;;;;;;4964232;28;20544;-85
2023/07/03 08:08:44;;;;;;;0.50;0.30;;;18.90;99.90;;;;;;4979197;28;20440;-81
2023/07/03 08:11:11;;;;;;;0.50;0.30;;;18.90;99.90;;;;;;4979240;28;20466;-83
2023/07/03 08:13:40;;;;;;;2.40;0.40;;;19.00;99.90;;;;;;4978955;28;20464;-84
2023/07/03 08:16:08;;;;;;;0.70;0.70;;;19.70;99.90;;;;;;4978843;28;20461;-83
2023/07/03 08:18:35;;;;;;;0.97;0.97;;;20.20;99.90;;;;;;4980278;28;20525;-84
2023/07/03 08:21:02;;;;;;;0.60;0.60;;;20.60;99.90;;;;;;4979116;28;20932;-82
2023/07/03 08:23:30;;;;;;;0.60;0.50;;;20.50;99.90;;;;;;4980530;28;20436;-84
2023/07/03 08:25:57;;;;;;;0.50;0.40;;;20.00;99.90;;;;;;4979238;28;20476;-83
2023/07/03 08:28:24;;;;;;;2.70;1.43;;;19.70;99.90;;;;;;4979918;28;20437;-83
2023/07/03 08:30:52;;;;;;;2.37;2.20;;;19.60;99.90;;;;;;4979671;28;20516;-83
2023/07/03 08:33:19;;;;;;;0.53;0.40;;;19.30;99.90;;;;;;4978190;28;20795;-83
2023/07/03 08:35:46;;;;;;;2.43;2.23;;;19.00;99.90;;;;;;4979612;28;20449;-83
2023/07/03 08:38:13;;;;;;;0.60;0.50;;;18.80;99.90;;;;;;4979889;28;20445;-83
2023/07/03 08:40:40;;;;;;;2.10;1.33;;;18.70;99.90;;;;;;4979989;28;20910;-84
2023/07/03 08:43:13;;;;;;;0.50;0.40;;;18.70;99.90;;;;;;4979883;28;20532;-83
2023/07/03 08:45:43;;;;;;;0.93;0.90;;;18.70;99.90;;;;;;4979459;28;20525;-83
2023/07/03 08:48:16;;;;;;;0.50;0.30;;;18.80;99.90;;;;;;4982264;28;20444;-81
2023/07/03 08:50:47;;;;;;;0.50;0.30;;;19.10;99.90;;;;;;4991989;28;20451;-82
2023/07/03 08:53:18;;;;;;;0.53;0.50;;;19.30;99.90;;;;;;4988988;28;20449;-83
2023/07/03 08:55:50;;;;;;;0.60;0.40;;;19.40;99.90;;;;;;4980525;28;20544;-84
2023/07/03 08:58:17;;;;;;;0.50;0.30;;;19.50;99.90;;;;;;4979905;28;20445;-83
2023/07/03 09:00:53;;;;;;;0.70;0.50;;;19.60;99.90;;;;;;4980212;28;20512;-84
2023/07/03 09:03:31;;;;;;;1.30;1.20;;;19.90;99.90;;;;;;5008024;22;20442;-77
2023/07/03 09:06:13;;;;;;;0.50;0.30;;;19.90;99.90;;;;;;5033661;28;20480;-80
2023/07/03 09:08:48;;;;;;;0.50;0.30;;;19.80;99.90;;;;;;5027709;28;20434;-80
2023/07/03 09:11:18;;;;;;;1.20;0.53;;;19.50;99.90;;;;;;5031807;28;20938;-81
2023/07/03 09:13:49;;;;;;;0.60;0.60;;;19.30;99.90;;;;;;5031386;28;20456;-79
2023/07/03 09:16:21;;;;;;;0.87;0.50;;;19.10;99.90;;;;;;5052795;28;20449;-77
2023/07/03 09:18:53;;;;;;;0.50;0.40;;;19.00;99.90;;;;;;5054610;28;20429;-79
2023/07/03 09:21:22;;;;;;;1.20;1.10;;;19.60;99.90;;;;;;5055597;28;20470;-79
2023/07/03 09:23:56;;;;;;;0.50;0.30;;;20.10;99.90;;;;;;5055996;28;20457;-80
2023/07/03 09:26:29;;;;;;;0.97;0.97;;;20.70;99.90;;;;;;5056590;28;20481;-79
2023/07/03 09:28:58;;;;;;;0.50;0.30;;;21.10;99.90;;;;;;5055301;28;20806;-79
2023/07/03 09:31:25;;;;;;;0.50;0.30;;;21.40;98.50;;;;;;5055614;28;20463;-77
2023/07/03 09:33:53;;;;;;;0.60;0.57;;;21.50;94.50;;;;;;5055330;28;20459;-80
2023/07/03 09:36:24;;;;;;;0.50;0.30;;;20.80;93.80;;;;;;5053237;28;20432;-80
2023/07/03 09:38:51;;;;;;;0.50;0.30;;;20.40;95.70;;;;;;5054849;28;20441;-79
2023/07/03 09:41:26;;;;;;;0.50;0.33;;;20.10;96.90;;;;;;5056030;28;20441;-78
2023/07/03 09:43:53;;;;;;;0.50;0.30;;;19.90;99.90;;;;;;5055229;28;20464;-80
2023/07/03 09:46:20;;;;;;;4.63;1.17;;;19.70;99.90;;;;;;5055624;28;20460;-79
2023/07/03 09:48:47;;;;;;;1.17;0.40;;;19.50;99.90;;;;;;5055194;28;20433;-79
2023/07/03 09:51:24;;;;;;;0.50;0.30;;;19.40;99.90;;;;;;5054683;28;20471;-78
2023/07/03 09:53:51;;;;;;;0.50;0.30;;;19.30;99.90;;;;;;5055339;28;20535;-78
2023/07/03 09:56:22;;;;;;;1.33;0.90;;;19.60;99.90;;;;;;5054721;28;20600;-79
2023/07/03 09:58:52;;;;;;;1.10;0.97;;;19.70;99.90;;;;;;5053902;28;20448;-79
2023/07/03 10:01:23;;;;;;;0.50;0.40;;;19.90;99.90;;;;;;5054579;28;20446;-78
2023/07/03 10:04:00;;;;;;;0.50;0.30;;;20.20;97.40;;;;;;5054236;28;20483;-79
2023/07/03 10:06:29;;;;;;;0.50;0.40;;;21.00;92.60;;;;;;5056287;28;20481;-78
2023/07/03 10:09:00;;;;;;;1.13;1.03;;;22.20;89.00;;;;;;5056804;28;20447;-80
2023/07/03 10:11:37;;;;;;;0.70;0.50;;;22.90;85.60;;;;;;5056940;28;20437;-79
2023/07/03 10:14:07;;;;;;;2.03;0.80;;;23.20;82.30;;;;;;5062985;28;20464;-81
2023/07/03 10:16:35;;;;;;;1.30;0.77;;;23.60;80.90;;;;;;5055500;28;20467;-78
2023/07/03 10:19:03;;;;;;;1.07;0.97;;;23.30;77.80;;;;;;5060911;28;20532;-78
2023/07/03 10:21:33;;;;;;;0.70;0.63;;;23.10;78.00;;;;;;5064848;28;20520;-80
2023/07/03 10:24:02;;;;;;;1.00;0.60;;;23.00;77.00;;;;;;5069207;28;20469;-80
2023/07/03 10:26:34;;;;;;;2.10;0.43;;;22.80;76.70;;;;;;5064030;28;20478;-79
2023/07/03 10:29:08;;;;;;;0.70;0.40;;;23.30;78.60;;;;;;5060375;28;20444;-78
2023/07/03 10:31:42;;;;;;;0.83;0.50;;;23.30;75.40;;;;;;5053001;28;20453;-81
2023/07/03 10:34:14;;;;;;;1.03;0.70;;;23.40;76.10;;;;;;5059964;28;20496;-77
2023/07/03 10:36:46;;;;;;;0.60;0.60;;;24.10;79.30;;;;;;5059111;28;20436;-78
2023/07/03 10:39:19;;;;;;;0.60;0.60;;;23.50;71.70;;;;;;5055799;28;20441;-75
2023/07/03 10:41:51;;;;;;;0.83;0.80;;;23.20;73.30;;;;;;5057143;28;20449;-78
2023/07/03 10:44:21;;;;;;;0.60;0.40;;;23.40;73.20;;;;;;5054964;28;20461;-80
2023/07/03 10:46:51;;;;;;;0.50;0.40;;;22.30;74.10;;;;;;5055149;28;20790;-79
2023/07/03 10:49:24;;;;;;;0.77;0.77;;;21.70;76.70;;;;;;5055116;28;20458;-79
2023/07/03 10:52:10;;;;;;;0.50;0.30;;;21.80;77.00;;;;;;5055795;28;20441;-79
2023/07/03 10:54:43;;;;;;;0.50;0.30;;;22.10;76.60;;;;;;5048107;28;20465;-79
2023/07/03 10:57:18;;;;;;;0.53;0.47;;;22.70;76.90;;;;;;5054536;28;20489;-76
2023/07/03 10:59:49;;;;;;;0.90;0.70;;;22.60;75.90;;;;;;5048590;28;20445;-79
2023/07/03 11:02:27;;;;;;;0.50;0.37;;;23.20;75.60;;;;;;5056545;28;20817;-79
2023/07/03 11:05:02;;;;;;;0.53;0.40;;;23.40;72.80;;;;;;5055571;28;20468;-79
2023/07/03 11:07:37;;;;;;;0.63;0.63;;;23.60;74.20;;;;;;5056576;28;20480;-79
2023/07/03 11:10:13;;;;;;;0.50;0.30;;;24.20;71.60;;;;;;5056823;28;20451;-79
2023/07/03 11:12:46;;;;;;;0.60;0.50;;;24.50;71.10;;;;;;5049824;28;20441;-80
2023/07/03 11:15:27;;;;;;;0.80;0.40;;;24.90;68.00;;;;;;5056493;28;20465;-80
2023/07/03 11:18:03;;;;;;;0.50;0.40;;;24.90;68.40;;;;;;5061872;28;20468;-80
2023/07/03 11:20:35;;;;;;;1.63;1.10;;;24.90;69.20;;;;;;5062038;28;20454;-80
2023/07/03 11:23:11;;;;;;;0.60;0.50;;;25.20;67.00;;;;;;5060942;28;20480;-80
2023/07/03 11:25:45;;;;;;;0.70;0.60;;;24.20;67.40;;;;;;5053932;28;20831;-80
2023/07/03 11:28:20;;;;;;;3.27;1.47;;;24.10;68.40;;;;;;5062363;28;20819;-77
2023/07/03 11:30:49;;;;;;;0.63;0.63;;;24.20;68.30;;;;;;5054471;28;20450;-80
2023/07/03 11:33:16;;;;;;;1.73;0.80;;;24.70;70.80;;;;;;5060746;28;20438;-79
2023/07/03 11:35:52;;;;;;;0.50;0.37;;;24.70;70.20;;;;;;5062337;28;20468;-79
2023/07/03 11:38:20;;;;;;;1.77;0.77;;;24.90;70.40;;;;;;5060717;28;20482;-79
2023/07/03 11:41:03;;;;;;;0.50;0.50;;;23.70;69.70;;;;;;5056037;28;20452;-79
2023/07/03 11:43:33;;;;;;;0.80;0.70;;;23.40;73.80;;;;;;5038409;28;20470;-79
2023/07/03 11:46:27;;;;;;;0.50;0.40;;;23.60;71.90;;;;;;5046545;28;20435;-79
2023/07/03 11:48:57;;;;;;;9.53;7.30;;;22.80;73.00;;;;;;5023622;28;20453;-78
2023/07/03 11:51:32;;;;;;;0.50;0.30;;;22.40;76.90;;;;;;5049849;28;20798;-80
2023/07/03 11:54:12;;;;;;;0.50;0.40;;;21.90;76.80;;;;;;5054409;28;20570;-81
2023/07/03 11:56:54;;;;;;;1.20;0.73;;;21.60;78.20;;;;;;5061159;28;20437;-80
2023/07/03 11:59:36;;;;;;;0.50;0.40;;;22.00;78.90;;;;;;5060386;28;20448;-79
2023/07/03 12:02:42;;;;;;;0.50;0.40;;;22.10;79.40;;;;;;5065577;28;20445;-80
2023/07/03 12:05:09;;;;;;;0.60;0.50;;;21.50;80.80;;;;;;5061592;28;20827;-78
2023/07/03 12:07:52;;;;;;;0.50;0.50;;;21.00;83.30;;;;;;5055993;28;20866;-80
2023/07/03 12:10:57;;;;;;;1.23;1.13;;;20.80;85.30;;;;;;5063166;28;20515;-80
2023/07/03 12:13:43;;;;;;;0.83;0.80;;;20.30;88.30;;;;;;5065585;28;20454;-80
2023/07/03 12:16:15;;;;;;;1.43;1.33;;;19.80;92.10;;;;;;5066004;28;21004;-76
2023/07/03 12:18:42;;;;;;;1.00;0.90;;;19.70;99.90;;;;;;5064834;28;20526;-80
2023/07/03 12:21:09;;;;;;;0.60;0.53;;;19.60;99.90;;;;;;5063904;28;20453;-81
2023/07/03 12:23:38;;;;;;;2.10;1.20;;;19.50;99.90;;;;;;5067305;28;20574;-79
2023/07/03 12:26:09;;;;;;;3.27;0.97;;;19.40;99.90;;;;;;5067159;28;20457;-80
2023/07/03 12:28:36;;;;;;;0.83;0.83;;;19.50;99.90;;;;;;5064911;28;20566;-80
2023/07/03 12:31:18;;;;;;;1.67;1.20;;;19.30;99.90;;;;;;5063803;28;20451;-80
2023/07/03 12:33:50;;;;;;;0.50;0.40;;;19.30;99.90;;;;;;5044760;28;20523;-80
2023/07/03 12:36:22;;;;;;;1.40;1.30;;;19.40;99.90;;;;;;5044418;28;20449;-80
2023/07/03 12:38:49;;;;;;;0.60;0.60;;;20.00;99.90;;;;;;5045016;28;21003;-80
2023/07/03 12:41:23;;;;;;;0.70;0.40;;;20.90;99.90;;;;;;5053905;28;20463;-77
2023/07/03 12:43:50;;;;;;;1.03;1.03;;;21.80;99.90;;;;;;5058789;28;20491;-81
2023/07/03 12:46:26;;;;;;;0.50;0.40;;;22.20;97.40;;;;;;5064572;28;20434;-79
2023/07/03 12:49:05;;;;;;;1.53;1.23;;;22.50;96.00;;;;;;5057159;28;20950;-80
2023/07/03 12:51:38;;;;;;;0.90;0.70;;;23.30;93.20;;;;;;5065240;28;20431;-80
2023/07/03 12:54:05;;;;;;;1.47;1.17;;;23.30;88.20;;;;;;5065270;28;20475;-80
2023/07/03 12:56:34;;;;;;;0.50;0.40;;;23.10;86.10;;;;;;5064690;28;20419;-79